| time (UTC) | temp C | wind direction | speed KPH | gust KPH | rain 1hr cm | rain 24hr cm | rain mn cm | humidity % | barometer mb |
| 20260502123027 | 20 | 352 | 1.6 | 4.8 | 0.00 | 0.00 | 0.00 | 47 | 1015.7 |
| 20260502121521 | 20 | 196 | 0.0 | 6.4 | 0.00 | 0.00 | 0.00 | 49 | 1015.8 |
| 20260502114528 | 18 | 159 | 0.0 | 3.2 | 0.00 | 0.00 | 0.00 | 53 | 1016.6 |
| 20260502113033 | 17 | 71 | 1.6 | 4.8 | 0.00 | 0.00 | 0.00 | 53 | 1016.7 |
| 20260502111520 | 17 | 94 | 0.0 | 4.8 | 0.00 | 0.00 | 0.00 | 57 | 1017.1 |
| 20260502110028 | 17 | 62 | 0.0 | 3.2 | 0.00 | 0.00 | 0.00 | 57 | 1017.2 |
| 20260502104525 | 16 | 254 | 1.6 | 3.2 | 0.00 | 0.00 | 0.00 | 59 | 1017.4 |
| 20260502103027 | 16 | 139 | 0.0 | 1.6 | 0.00 | 0.00 | 0.00 | 61 | 1017.6 |
| 20260502101529 | 15 | 233 | 0.0 | 4.8 | 0.00 | 0.00 | 0.00 | 66 | 1017.7 |
| 20260502091515 | 13 | 289 | 0.0 | 3.2 | 0.00 | 0.00 | 0.00 | 77 | 1018.3 |
| 20260502071506 | 10 | 214 | 0.0 | 3.2 | 0.00 | 0.00 | 0.00 | 88 | 1019.0 |
| 20260502070012 | 10 | 236 | 0.0 | 3.2 | 0.00 | 0.00 | 0.00 | 90 | 1018.9 |
| 20260502064520 | 9 | 255 | 0.0 | 4.8 | 0.00 | 0.00 | 0.00 | 90 | 1018.8 |
| 20260502063024 | 9 | 271 | 0.0 | 1.6 | 0.00 | 0.00 | 0.00 | 92 | 1018.9 |
| 20260502061527 | 9 | 217 | 0.0 | 1.6 | 0.00 | 0.00 | 0.00 | 92 | 1018.9 |
| 20260502060012 | 8 | 219 | 0.0 | 3.2 | 0.00 | 0.00 | 0.00 | 92 | 1018.9 |
| 20260502054516 | 8 | 229 | 0.0 | 3.2 | 0.00 | 0.00 | 0.00 | 92 | 1018.8 |
| 20260502053022 | 8 | 212 | 0.0 | 4.8 | 0.00 | 0.00 | 0.00 | 93 | 1018.9 |
| 20260502051527 | 8 | 233 | 0.0 | 3.2 | 0.00 | 0.00 | 0.00 | 92 | 1018.9 |
| 20260502050029 | 8 | 216 | 0.0 | 3.2 | 0.00 | 0.00 | 0.00 | 92 | 1018.8 |
| 20260502044511 | 9 | 220 | 0.0 | 3.2 | 0.00 | 0.00 | 0.00 | 92 | 1018.8 |
| 20260502043018 | 9 | 220 | 0.0 | 3.2 | 0.00 | 0.00 | 0.00 | 93 | 1018.8 |
| 20260502041523 | 9 | 219 | 1.6 | 3.2 | 0.00 | 0.00 | 0.00 | 92 | 1018.9 |
| 20260502040026 | 9 | 232 | 0.0 | 1.6 | 0.00 | 0.00 | 0.00 | 92 | 1018.9 |
| 20260502034530 | 9 | 243 | 0.0 | 3.2 | 0.00 | 0.00 | 0.00 | 92 | 1018.9 |
| 20260502033019 | 9 | 226 | 0.0 | 1.6 | 0.00 | 0.00 | 0.00 | 91 | 1019.0 |
| 20260502031522 | 9 | 221 | 0.0 | 3.2 | 0.00 | 0.00 | 0.00 | 91 | 1019.1 |
| 20260502030025 | 9 | 231 | 0.0 | 3.2 | 0.00 | 0.00 | 0.00 | 90 | 1019.1 |
| 20260502024531 | 10 | 235 | 1.6 | 3.2 | 0.00 | 0.00 | 0.00 | 90 | 1019.1 |
| 20260502023033 | 10 | 178 | 1.6 | 3.2 | 0.00 | 0.00 | 0.00 | 90 | 1019.2 |
| 20260502021516 | 10 | 233 | 0.0 | 3.2 | 0.00 | 0.00 | 0.00 | 90 | 1019.2 |
| 20260502020026 | 10 | 287 | 0.0 | 1.6 | 0.00 | 0.00 | 0.00 | 89 | 1019.2 |
| 20260502014523 | 10 | 221 | 0.0 | 1.6 | 0.00 | 0.00 | 0.00 | 88 | 1019.1 |
| 20260502013025 | 10 | 219 | 0.0 | 1.6 | 0.00 | 0.00 | 0.00 | 88 | 1019.3 |
| 20260502011528 | 10 | 219 | 0.0 | 1.6 | 0.00 | 0.00 | 0.00 | 87 | 1019.2 |
| 20260502010019 | 11 | 215 | 0.0 | 3.2 | 0.00 | 0.00 | 0.00 | 87 | 1019.4 |
| 20260502004522 | 11 | 220 | 0.0 | 1.6 | 0.00 | 0.00 | 0.00 | 86 | 1019.6 |
| 20260502003024 | 11 | 216 | 0.0 | 1.6 | 0.00 | 0.00 | 0.00 | 85 | 1019.9 |
| 20260502001528 | 11 | 213 | 0.0 | 3.2 | 0.00 | 0.00 | 0.00 | 85 | 1020.0 |
| 20260502000029 | 11 | 222 | 0.0 | 4.8 | 0.00 | 0.00 | 0.00 | 85 | 1020.1 |
| 20260501234522 | 11 | 225 | 0.0 | 6.4 | 0.00 | 0.00 | 0.00 | 85 | 1020.1 |
| 20260501233025 | 11 | 221 | 0.0 | 1.6 | 0.00 | 0.00 | 0.00 | 84 | 1020.2 |
| 20260501231528 | 11 | 221 | 0.0 | 0.0 | 0.00 | 0.00 | 0.00 | 82 | 1020.2 |
| 20260501230028 | 11 | 220 | 0.0 | 3.2 | 0.00 | 0.00 | 0.00 | 81 | 1020.2 |
| 20260501224541 | 12 | 226 | 0.0 | 1.6 | 0.00 | 0.00 | 0.00 | 78 | 1020.4 |
| 20260501223022 | 12 | 226 | 0.0 | 1.6 | 0.00 | 0.00 | 0.00 | 77 | 1020.4 |
| 20260501221523 | 12 | 222 | 0.0 | 3.2 | 0.00 | 0.00 | 0.00 | 76 | 1020.3 |
| 20260501220027 | 13 | 237 | 0.0 | 6.4 | 0.00 | 0.00 | 0.00 | 75 | 1020.3 |
| 20260501214530 | 13 | 221 | 0.0 | 3.2 | 0.00 | 0.00 | 0.00 | 74 | 1020.4 |
| 20260501213032 | 13 | 247 | 1.6 | 6.4 | 0.00 | 0.00 | 0.00 | 73 | 1020.2 |
| 20260501211520 | 14 | 290 | 0.0 | 3.2 | 0.00 | 0.00 | 0.00 | 72 | 1020.2 |
| 20260501210024 | 15 | 226 | 0.0 | 3.2 | 0.00 | 0.00 | 0.00 | 72 | 1020.1 |
| 20260501204531 | 15 | 226 | 0.0 | 4.8 | 0.00 | 0.00 | 0.00 | 71 | 1020.1 |
| 20260501203028 | 15 | 212 | 0.0 | 3.2 | 0.00 | 0.00 | 0.00 | 71 | 1020.1 |
| 20260501201531 | 15 | 136 | 0.0 | 1.6 | 0.00 | 0.00 | 0.00 | 69 | 1020.0 |
| 20260501200026 | 16 | 133 | 0.0 | 1.6 | 0.00 | 0.00 | 0.00 | 67 | 1019.9 |
| 20260501194528 | 16 | 222 | 0.0 | 3.2 | 0.00 | 0.00 | 0.00 | 65 | 1019.9 |
| 20260501193041 | 17 | 226 | 1.6 | 4.8 | 0.00 | 0.00 | 0.00 | 64 | 1019.8 |
| 20260501191529 | 17 | 227 | 0.0 | 3.2 | 0.00 | 0.00 | 0.00 | 62 | 1019.7 |
| 20260501190032 | 18 | 213 | 0.0 | 4.8 | 0.00 | 0.00 | 0.00 | 61 | 1019.6 |
| 20260501184524 | 18 | 220 | 0.0 | 3.2 | 0.00 | 0.00 | 0.00 | 60 | 1019.6 |
| 20260501183027 | 19 | 226 | 0.0 | 9.7 | 0.00 | 0.00 | 0.00 | 58 | 1019.6 |
| 20260501181512 | 20 | 214 | 1.6 | 4.8 | 0.00 | 0.00 | 0.00 | 57 | 1019.5 |
| 20260501180016 | 21 | 259 | 1.6 | 6.4 | 0.00 | 0.00 | 0.00 | 55 | 1019.4 |
| 20260501174519 | 21 | 148 | 1.6 | 4.8 | 0.00 | 0.00 | 0.00 | 55 | 1019.4 |
| 20260501173025 | 21 | 266 | 3.2 | 9.7 | 0.00 | 0.00 | 0.00 | 56 | 1019.4 |
| 20260501171509 | 21 | 257 | 3.2 | 12.9 | 0.00 | 0.00 | 0.00 | 56 | 1019.4 |
| 20260501170016 | 21 | 236 | 3.2 | 16.1 | 0.00 | 0.00 | 0.00 | 56 | 1019.3 |
| 20260501164518 | 21 | 216 | 4.8 | 11.3 | 0.00 | 0.00 | 0.00 | 55 | 1019.3 |
| 20260501163030 | 22 | 212 | 3.2 | 9.7 | 0.00 | 0.00 | 0.00 | 56 | 1019.3 |
| 20260501161527 | 22 | 206 | 8.0 | 14.5 | 0.00 | 0.00 | 0.00 | 57 | 1019.4 |
| 20260501160010 | 22 | 232 | 4.8 | 12.9 | 0.00 | 0.00 | 0.00 | 57 | 1019.4 |
| 20260501154518 | 22 | 230 | 1.6 | 9.7 | 0.00 | 0.00 | 0.00 | 54 | 1019.4 |
| 20260501153020 | 23 | 215 | 1.6 | 8.0 | 0.00 | 0.00 | 0.00 | 53 | 1019.4 |
| 20260501151525 | 23 | 226 | 3.2 | 8.0 | 0.00 | 0.00 | 0.00 | 50 | 1019.5 |
| 20260501150026 | 23 | 224 | 6.4 | 12.9 | 0.00 | 0.00 | 0.00 | 50 | 1019.5 |
| 20260501144513 | 23 | 238 | 4.8 | 9.7 | 0.00 | 0.00 | 0.00 | 50 | 1019.5 |
| 20260501143018 | 24 | 183 | 4.8 | 9.7 | 0.00 | 0.00 | 0.00 | 49 | 1019.4 |